sensor_id;sensor_type;location;lat;lon;timestamp;pressure;altitude;pressure_sealevel;temperature
75822;BMP180;64454;51.984;9.838;2024-01-07T00:01:49;100184.00;;;2.40
75822;BMP180;64454;51.984;9.838;2024-01-07T00:04:15;100185.00;;;2.60
75822;BMP180;64454;51.984;9.838;2024-01-07T00:06:41;100184.00;;;2.60
75822;BMP180;64454;51.984;9.838;2024-01-07T00:09:08;100189.00;;;2.80
75822;BMP180;64454;51.984;9.838;2024-01-07T00:11:34;100185.00;;;2.20
75822;BMP180;64454;51.984;9.838;2024-01-07T00:14:00;100184.00;;;2.20
75822;BMP180;64454;51.984;9.838;2024-01-07T00:16:27;100193.00;;;2.00
75822;BMP180;64454;51.984;9.838;2024-01-07T00:18:53;100197.00;;;2.30
75822;BMP180;64454;51.984;9.838;2024-01-07T00:21:19;100197.00;;;2.50
75822;BMP180;64454;51.984;9.838;2024-01-07T00:23:45;100204.00;;;2.40
75822;BMP180;64454;51.984;9.838;2024-01-07T00:26:12;100197.00;;;2.30
75822;BMP180;64454;51.984;9.838;2024-01-07T00:28:38;100206.00;;;3.00
75822;BMP180;64454;51.984;9.838;2024-01-07T00:31:04;100206.00;;;2.30
75822;BMP180;64454;51.984;9.838;2024-01-07T00:33:34;100210.00;;;2.30
75822;BMP180;64454;51.984;9.838;2024-01-07T00:36:01;100219.00;;;1.80
75822;BMP180;64454;51.984;9.838;2024-01-07T00:38:27;100222.00;;;2.00
75822;BMP180;64454;51.984;9.838;2024-01-07T00:40:53;100217.00;;;1.70
75822;BMP180;64454;51.984;9.838;2024-01-07T00:43:19;100221.00;;;1.60
75822;BMP180;64454;51.984;9.838;2024-01-07T00:45:45;100224.00;;;1.80
75822;BMP180;64454;51.984;9.838;2024-01-07T00:48:13;100227.00;;;1.60
75822;BMP180;64454;51.984;9.838;2024-01-07T00:50:40;100224.00;;;1.70
75822;BMP180;64454;51.984;9.838;2024-01-07T00:53:06;100230.00;;;1.90
75822;BMP180;64454;51.984;9.838;2024-01-07T00:55:32;100236.00;;;1.90
75822;BMP180;64454;51.984;9.838;2024-01-07T00:57:58;100241.00;;;1.80
75822;BMP180;64454;51.984;9.838;2024-01-07T01:00:24;100240.00;;;1.70
75822;BMP180;64454;51.984;9.838;2024-01-07T01:02:50;100241.00;;;2.20
75822;BMP180;64454;51.984;9.838;2024-01-07T01:05:17;100246.00;;;1.70
75822;BMP180;64454;51.984;9.838;2024-01-07T01:07:43;100258.00;;;2.00
75822;BMP180;64454;51.984;9.838;2024-01-07T01:10:10;100261.00;;;2.40
75822;BMP180;64454;51.984;9.838;2024-01-07T01:12:36;100264.00;;;2.20
75822;BMP180;64454;51.984;9.838;2024-01-07T01:15:02;100257.00;;;1.70
75822;BMP180;64454;51.984;9.838;2024-01-07T01:17:30;100273.00;;;1.60
75822;BMP180;64454;51.984;9.838;2024-01-07T01:19:56;100264.00;;;2.10
75822;BMP180;64454;51.984;9.838;2024-01-07T01:22:23;100269.00;;;1.80
75822;BMP180;64454;51.984;9.838;2024-01-07T01:24:49;100278.00;;;1.90
75822;BMP180;64454;51.984;9.838;2024-01-07T01:27:16;100273.00;;;2.20
75822;BMP180;64454;51.984;9.838;2024-01-07T01:29:42;100272.00;;;2.20
75822;BMP180;64454;51.984;9.838;2024-01-07T01:32:08;100279.00;;;2.10
75822;BMP180;64454;51.984;9.838;2024-01-07T01:34:35;100290.00;;;1.90
75822;BMP180;64454;51.984;9.838;2024-01-07T01:37:01;100290.00;;;1.60
75822;BMP180;64454;51.984;9.838;2024-01-07T01:39:29;100300.00;;;1.80
75822;BMP180;64454;51.984;9.838;2024-01-07T01:41:55;100305.00;;;1.80
75822;BMP180;64454;51.984;9.838;2024-01-07T01:44:22;100303.00;;;1.80
75822;BMP180;64454;51.984;9.838;2024-01-07T01:46:48;100300.00;;;2.30
75822;BMP180;64454;51.984;9.838;2024-01-07T01:49:14;100303.00;;;1.80
75822;BMP180;64454;51.984;9.838;2024-01-07T01:51:41;100306.00;;;1.80
75822;BMP180;64454;51.984;9.838;2024-01-07T01:54:08;100311.00;;;1.80
75822;BMP180;64454;51.984;9.838;2024-01-07T01:56:35;100314.00;;;1.50
75822;BMP180;64454;51.984;9.838;2024-01-07T01:59:01;100317.00;;;1.60
75822;BMP180;64454;51.984;9.838;2024-01-07T02:01:28;100305.00;;;1.60
75822;BMP180;64454;51.984;9.838;2024-01-07T02:03:54;100308.00;;;1.80
75822;BMP180;64454;51.984;9.838;2024-01-07T02:06:21;100309.00;;;1.30
75822;BMP180;64454;51.984;9.838;2024-01-07T02:08:48;100316.00;;;1.40
75822;BMP180;64454;51.984;9.838;2024-01-07T02:11:16;100313.00;;;1.80
75822;BMP180;64454;51.984;9.838;2024-01-07T02:13:43;100320.00;;;1.60
75822;BMP180;64454;51.984;9.838;2024-01-07T02:16:10;100317.00;;;1.70
75822;BMP180;64454;51.984;9.838;2024-01-07T02:18:37;100324.00;;;1.90
75822;BMP180;64454;51.984;9.838;2024-01-07T02:21:04;100330.00;;;1.60
75822;BMP180;64454;51.984;9.838;2024-01-07T02:23:30;100336.00;;;1.50
75822;BMP180;64454;51.984;9.838;2024-01-07T02:25:57;100333.00;;;2.00
75822;BMP180;64454;51.984;9.838;2024-01-07T02:28:23;100335.00;;;1.40
75822;BMP180;64454;51.984;9.838;2024-01-07T02:30:49;100335.00;;;1.70
75822;BMP180;64454;51.984;9.838;2024-01-07T02:33:15;100344.00;;;1.60
75822;BMP180;64454;51.984;9.838;2024-01-07T02:35:41;100338.00;;;1.60
75822;BMP180;64454;51.984;9.838;2024-01-07T02:38:07;100339.00;;;1.80
75822;BMP180;64454;51.984;9.838;2024-01-07T02:40:34;100343.00;;;1.70
75822;BMP180;64454;51.984;9.838;2024-01-07T02:43:00;100353.00;;;1.40
75822;BMP180;64454;51.984;9.838;2024-01-07T02:45:26;100352.00;;;1.30
75822;BMP180;64454;51.984;9.838;2024-01-07T02:47:52;100348.00;;;1.40
75822;BMP180;64454;51.984;9.838;2024-01-07T02:50:19;100354.00;;;1.20
75822;BMP180;64454;51.984;9.838;2024-01-07T02:52:45;100365.00;;;1.40
75822;BMP180;64454;51.984;9.838;2024-01-07T02:55:11;100371.00;;;1.50
75822;BMP180;64454;51.984;9.838;2024-01-07T02:57:37;100371.00;;;1.30
75822;BMP180;64454;51.984;9.838;2024-01-07T03:00:06;100369.00;;;1.40
75822;BMP180;64454;51.984;9.838;2024-01-07T03:02:33;100371.00;;;1.80
75822;BMP180;64454;51.984;9.838;2024-01-07T03:04:59;100374.00;;;1.40
75822;BMP180;64454;51.984;9.838;2024-01-07T03:07:25;100378.00;;;1.10
75822;BMP180;64454;51.984;9.838;2024-01-07T03:09:52;100380.00;;;1.20
75822;BMP180;64454;51.984;9.838;2024-01-07T03:12:18;100381.00;;;1.40
75822;BMP180;64454;51.984;9.838;2024-01-07T03:14:44;100388.00;;;1.40
75822;BMP180;64454;51.984;9.838;2024-01-07T03:17:11;100386.00;;;1.20
75822;BMP180;64454;51.984;9.838;2024-01-07T03:19:38;100388.00;;;1.30
75822;BMP180;64454;51.984;9.838;2024-01-07T03:22:04;100396.00;;;1.10
75822;BMP180;64454;51.984;9.838;2024-01-07T03:24:32;100402.00;;;1.60
75822;BMP180;64454;51.984;9.838;2024-01-07T03:26:58;100404.00;;;1.20
75822;BMP180;64454;51.984;9.838;2024-01-07T03:29:24;100411.00;;;1.20
75822;BMP180;64454;51.984;9.838;2024-01-07T03:31:51;100411.00;;;1.40
75822;BMP180;64454;51.984;9.838;2024-01-07T03:34:19;100417.00;;;1.00
75822;BMP180;64454;51.984;9.838;2024-01-07T03:36:45;100403.00;;;1.00
75822;BMP180;64454;51.984;9.838;2024-01-07T03:39:11;100414.00;;;1.10
75822;BMP180;64454;51.984;9.838;2024-01-07T03:41:37;100413.00;;;0.90
75822;BMP180;64454;51.984;9.838;2024-01-07T03:44:04;100416.00;;;1.30
75822;BMP180;64454;51.984;9.838;2024-01-07T03:46:30;100415.00;;;1.40
75822;BMP180;64454;51.984;9.838;2024-01-07T03:48:56;100412.00;;;1.20
75822;BMP180;64454;51.984;9.838;2024-01-07T03:51:23;100424.00;;;1.20
75822;BMP180;64454;51.984;9.838;2024-01-07T03:53:49;100426.00;;;1.20
75822;BMP180;64454;51.984;9.838;2024-01-07T03:56:15;100419.00;;;1.30
75822;BMP180;64454;51.984;9.838;2024-01-07T03:58:41;100433.00;;;1.30
75822;BMP180;64454;51.984;9.838;2024-01-07T04:01:07;100422.00;;;1.00
75822;BMP180;64454;51.984;9.838;2024-01-07T04:03:33;100427.00;;;1.20
75822;BMP180;64454;51.984;9.838;2024-01-07T04:05:59;100429.00;;;0.80
75822;BMP180;64454;51.984;9.838;2024-01-07T04:08:26;100439.00;;;0.80
75822;BMP180;64454;51.984;9.838;2024-01-07T04:10:52;100437.00;;;0.80
75822;BMP180;64454;51.984;9.838;2024-01-07T04:13:18;100444.00;;;1.00
75822;BMP180;64454;51.984;9.838;2024-01-07T04:15:44;100445.00;;;0.90
75822;BMP180;64454;51.984;9.838;2024-01-07T04:18:10;100459.00;;;1.10
75822;BMP180;64454;51.984;9.838;2024-01-07T04:20:37;100457.00;;;0.60
75822;BMP180;64454;51.984;9.838;2024-01-07T04:23:03;100468.00;;;1.00
75822;BMP180;64454;51.984;9.838;2024-01-07T04:25:30;100451.00;;;1.30
75822;BMP180;64454;51.984;9.838;2024-01-07T04:27:56;100470.00;;;1.00
75822;BMP180;64454;51.984;9.838;2024-01-07T04:30:22;100478.00;;;0.80
75822;BMP180;64454;51.984;9.838;2024-01-07T04:32:48;100473.00;;;0.70
75822;BMP180;64454;51.984;9.838;2024-01-07T04:35:14;100481.00;;;0.50
75822;BMP180;64454;51.984;9.838;2024-01-07T04:37:42;100489.00;;;0.90
75822;BMP180;64454;51.984;9.838;2024-01-07T04:40:10;100485.00;;;1.00
75822;BMP180;64454;51.984;9.838;2024-01-07T04:42:36;100482.00;;;1.10
75822;BMP180;64454;51.984;9.838;2024-01-07T04:45:03;100493.00;;;1.30
75822;BMP180;64454;51.984;9.838;2024-01-07T04:47:32;100492.00;;;1.40
75822;BMP180;64454;51.984;9.838;2024-01-07T04:50:00;100492.00;;;1.00
75822;BMP180;64454;51.984;9.838;2024-01-07T04:52:26;100502.00;;;1.00
75822;BMP180;64454;51.984;9.838;2024-01-07T04:54:53;100498.00;;;0.90
75822;BMP180;64454;51.984;9.838;2024-01-07T04:57:20;100492.00;;;1.10
75822;BMP180;64454;51.984;9.838;2024-01-07T04:59:48;100499.00;;;1.00
75822;BMP180;64454;51.984;9.838;2024-01-07T05:02:14;100503.00;;;0.80
75822;BMP180;64454;51.984;9.838;2024-01-07T05:04:41;100505.00;;;0.80
75822;BMP180;64454;51.984;9.838;2024-01-07T05:07:07;100504.00;;;1.00
75822;BMP180;64454;51.984;9.838;2024-01-07T05:09:33;100509.00;;;0.50
75822;BMP180;64454;51.984;9.838;2024-01-07T05:11:59;100519.00;;;0.80
75822;BMP180;64454;51.984;9.838;2024-01-07T05:14:25;100514.00;;;0.90
75822;BMP180;64454;51.984;9.838;2024-01-07T05:16:53;100520.00;;;0.80
75822;BMP180;64454;51.984;9.838;2024-01-07T05:19:20;100518.00;;;1.00
75822;BMP180;64454;51.984;9.838;2024-01-07T05:21:46;100518.00;;;1.20
75822;BMP180;64454;51.984;9.838;2024-01-07T05:24:12;100523.00;;;1.40
75822;BMP180;64454;51.984;9.838;2024-01-07T05:26:38;100532.00;;;0.70
75822;BMP180;64454;51.984;9.838;2024-01-07T05:29:05;100537.00;;;0.90
75822;BMP180;64454;51.984;9.838;2024-01-07T05:31:31;100546.00;;;0.80
75822;BMP180;64454;51.984;9.838;2024-01-07T05:33:58;100547.00;;;0.70
75822;BMP180;64454;51.984;9.838;2024-01-07T05:36:24;100554.00;;;0.70
75822;BMP180;64454;51.984;9.838;2024-01-07T05:38:50;100559.00;;;0.60
75822;BMP180;64454;51.984;9.838;2024-01-07T05:41:16;100562.00;;;0.40
75822;BMP180;64454;51.984;9.838;2024-01-07T05:43:42;100563.00;;;0.70
75822;BMP180;64454;51.984;9.838;2024-01-07T05:46:09;100576.00;;;0.60
75822;BMP180;64454;51.984;9.838;2024-01-07T05:48:41;100569.00;;;0.80
75822;BMP180;64454;51.984;9.838;2024-01-07T05:51:09;100572.00;;;0.70
75822;BMP180;64454;51.984;9.838;2024-01-07T05:53:35;100568.00;;;0.50
75822;BMP180;64454;51.984;9.838;2024-01-07T05:56:02;100571.00;;;0.50
75822;BMP180;64454;51.984;9.838;2024-01-07T05:58:29;100570.00;;;0.40
75822;BMP180;64454;51.984;9.838;2024-01-07T06:00:55;100583.00;;;0.50
75822;BMP180;64454;51.984;9.838;2024-01-07T06:03:21;100583.00;;;0.70
75822;BMP180;64454;51.984;9.838;2024-01-07T06:05:47;100590.00;;;0.60
75822;BMP180;64454;51.984;9.838;2024-01-07T06:08:14;100587.00;;;0.50
75822;BMP180;64454;51.984;9.838;2024-01-07T06:10:41;100599.00;;;0.50
75822;BMP180;64454;51.984;9.838;2024-01-07T06:13:07;100606.00;;;0.50
75822;BMP180;64454;51.984;9.838;2024-01-07T06:15:33;100606.00;;;0.30
75822;BMP180;64454;51.984;9.838;2024-01-07T06:17:59;100615.00;;;0.40
75822;BMP180;64454;51.984;9.838;2024-01-07T06:20:25;100621.00;;;0.60
75822;BMP180;64454;51.984;9.838;2024-01-07T06:22:52;100619.00;;;0.70
75822;BMP180;64454;51.984;9.838;2024-01-07T06:25:18;100627.00;;;0.80
75822;BMP180;64454;51.984;9.838;2024-01-07T06:27:45;100625.00;;;0.60
75822;BMP180;64454;51.984;9.838;2024-01-07T06:30:12;100638.00;;;0.40
75822;BMP180;64454;51.984;9.838;2024-01-07T06:32:39;100640.00;;;0.50
75822;BMP180;64454;51.984;9.838;2024-01-07T06:35:05;100637.00;;;0.40
75822;BMP180;64454;51.984;9.838;2024-01-07T06:37:32;100641.00;;;0.50
75822;BMP180;64454;51.984;9.838;2024-01-07T06:39:58;100646.00;;;0.40
75822;BMP180;64454;51.984;9.838;2024-01-07T06:42:25;100661.00;;;0.40
75822;BMP180;64454;51.984;9.838;2024-01-07T06:44:51;100663.00;;;0.20
75822;BMP180;64454;51.984;9.838;2024-01-07T06:47:17;100661.00;;;0.40
75822;BMP180;64454;51.984;9.838;2024-01-07T06:49:44;100664.00;;;0.40
75822;BMP180;64454;51.984;9.838;2024-01-07T06:52:10;100671.00;;;0.40
75822;BMP180;64454;51.984;9.838;2024-01-07T06:54:36;100673.00;;;0.30
75822;BMP180;64454;51.984;9.838;2024-01-07T06:57:02;100678.00;;;0.10
75822;BMP180;64454;51.984;9.838;2024-01-07T06:59:29;100689.00;;;0.20
75822;BMP180;64454;51.984;9.838;2024-01-07T07:01:55;100689.00;;;0.10
75822;BMP180;64454;51.984;9.838;2024-01-07T07:04:22;100694.00;;;0.10
75822;BMP180;64454;51.984;9.838;2024-01-07T07:06:48;100691.00;;;0.30
75822;BMP180;64454;51.984;9.838;2024-01-07T07:09:14;100708.00;;;0.50
75822;BMP180;64454;51.984;9.838;2024-01-07T07:11:41;100697.00;;;0.50
75822;BMP180;64454;51.984;9.838;2024-01-07T07:14:07;100707.00;;;0.20
75822;BMP180;64454;51.984;9.838;2024-01-07T07:16:33;100712.00;;;0.20
75822;BMP180;64454;51.984;9.838;2024-01-07T07:19:00;100717.00;;;0.40
75822;BMP180;64454;51.984;9.838;2024-01-07T07:21:26;100722.00;;;0.40
75822;BMP180;64454;51.984;9.838;2024-01-07T07:23:53;100729.00;;;0.40
75822;BMP180;64454;51.984;9.838;2024-01-07T07:26:19;100740.00;;;0.20
75822;BMP180;64454;51.984;9.838;2024-01-07T07:28:45;100742.00;;;0.40
75822;BMP180;64454;51.984;9.838;2024-01-07T07:31:12;100741.00;;;0.10
75822;BMP180;64454;51.984;9.838;2024-01-07T07:33:39;100745.00;;;0.00
75822;BMP180;64454;51.984;9.838;2024-01-07T07:36:05;100759.00;;;-0.30
75822;BMP180;64454;51.984;9.838;2024-01-07T07:38:32;100755.00;;;-0.40
75822;BMP180;64454;51.984;9.838;2024-01-07T07:40:58;100756.00;;;-0.10
75822;BMP180;64454;51.984;9.838;2024-01-07T07:43:26;100769.00;;;0.00
75822;BMP180;64454;51.984;9.838;2024-01-07T07:45:52;100760.00;;;0.00
75822;BMP180;64454;51.984;9.838;2024-01-07T07:48:18;100761.00;;;0.00
75822;BMP180;64454;51.984;9.838;2024-01-07T07:50:45;100771.00;;;0.10
75822;BMP180;64454;51.984;9.838;2024-01-07T07:53:11;100779.00;;;0.20
75822;BMP180;64454;51.984;9.838;2024-01-07T07:55:37;100781.00;;;0.10
75822;BMP180;64454;51.984;9.838;2024-01-07T07:58:04;100775.00;;;-0.20
75822;BMP180;64454;51.984;9.838;2024-01-07T08:00:30;100788.00;;;-0.30
75822;BMP180;64454;51.984;9.838;2024-01-07T08:02:56;100792.00;;;-0.20
75822;BMP180;64454;51.984;9.838;2024-01-07T08:05:22;100793.00;;;-0.40
75822;BMP180;64454;51.984;9.838;2024-01-07T08:07:49;100799.00;;;-0.20
75822;BMP180;64454;51.984;9.838;2024-01-07T08:10:15;100811.00;;;-0.40
75822;BMP180;64454;51.984;9.838;2024-01-07T08:12:41;100804.00;;;-0.20
75822;BMP180;64454;51.984;9.838;2024-01-07T08:15:08;100820.00;;;-0.40
75822;BMP180;64454;51.984;9.838;2024-01-07T08:17:34;100828.00;;;-0.40
75822;BMP180;64454;51.984;9.838;2024-01-07T08:20:00;100827.00;;;-0.70
75822;BMP180;64454;51.984;9.838;2024-01-07T08:22:27;100855.00;;;-0.70
75822;BMP180;64454;51.984;9.838;2024-01-07T08:24:54;100847.00;;;-0.70
75822;BMP180;64454;51.984;9.838;2024-01-07T08:27:20;100848.00;;;-0.60
75822;BMP180;64454;51.984;9.838;2024-01-07T08:29:46;100833.00;;;-0.60
75822;BMP180;64454;51.984;9.838;2024-01-07T08:32:13;100832.00;;;-0.60
75822;BMP180;64454;51.984;9.838;2024-01-07T08:34:39;100861.00;;;-0.60
75822;BMP180;64454;51.984;9.838;2024-01-07T08:37:05;100855.00;;;-0.70
75822;BMP180;64454;51.984;9.838;2024-01-07T08:39:31;100860.00;;;-0.50
75822;BMP180;64454;51.984;9.838;2024-01-07T08:41:58;100865.00;;;-0.40
75822;BMP180;64454;51.984;9.838;2024-01-07T08:44:24;100870.00;;;-0.40
75822;BMP180;64454;51.984;9.838;2024-01-07T08:46:50;100872.00;;;-0.20
75822;BMP180;64454;51.984;9.838;2024-01-07T08:49:17;100879.00;;;-0.10
75822;BMP180;64454;51.984;9.838;2024-01-07T08:51:43;100865.00;;;-0.30
75822;BMP180;64454;51.984;9.838;2024-01-07T08:54:09;100879.00;;;-0.30
75822;BMP180;64454;51.984;9.838;2024-01-07T08:56:35;100882.00;;;-0.30
75822;BMP180;64454;51.984;9.838;2024-01-07T08:59:02;100877.00;;;-0.40
75822;BMP180;64454;51.984;9.838;2024-01-07T09:01:30;100876.00;;;0.00
75822;BMP180;64454;51.984;9.838;2024-01-07T09:03:56;100892.00;;;0.20
75822;BMP180;64454;51.984;9.838;2024-01-07T09:06:22;100888.00;;;-0.20
75822;BMP180;64454;51.984;9.838;2024-01-07T09:08:48;100883.00;;;-0.50
75822;BMP180;64454;51.984;9.838;2024-01-07T09:11:14;100891.00;;;-0.20
75822;BMP180;64454;51.984;9.838;2024-01-07T09:13:42;100897.00;;;-0.10
75822;BMP180;64454;51.984;9.838;2024-01-07T09:16:08;100898.00;;;0.50
75822;BMP180;64454;51.984;9.838;2024-01-07T09:18:37;100906.00;;;0.30
75822;BMP180;64454;51.984;9.838;2024-01-07T09:21:03;100909.00;;;0.40
75822;BMP180;64454;51.984;9.838;2024-01-07T09:23:29;100911.00;;;0.70
75822;BMP180;64454;51.984;9.838;2024-01-07T09:25:55;100911.00;;;0.30
75822;BMP180;64454;51.984;9.838;2024-01-07T09:28:22;100917.00;;;0.40
75822;BMP180;64454;51.984;9.838;2024-01-07T09:30:48;100916.00;;;0.60
75822;BMP180;64454;51.984;9.838;2024-01-07T09:33:14;100921.00;;;0.20
75822;BMP180;64454;51.984;9.838;2024-01-07T09:35:41;100924.00;;;0.60
75822;BMP180;64454;51.984;9.838;2024-01-07T09:38:07;100935.00;;;0.20
75822;BMP180;64454;51.984;9.838;2024-01-07T09:40:33;100936.00;;;0.40
75822;BMP180;64454;51.984;9.838;2024-01-07T09:42:59;100926.00;;;0.70
75822;BMP180;64454;51.984;9.838;2024-01-07T09:45:28;100932.00;;;0.80
75822;BMP180;64454;51.984;9.838;2024-01-07T09:47:55;100935.00;;;0.40
75822;BMP180;64454;51.984;9.838;2024-01-07T09:50:22;100939.00;;;0.50
75822;BMP180;64454;51.984;9.838;2024-01-07T09:52:48;100933.00;;;0.80
75822;BMP180;64454;51.984;9.838;2024-01-07T09:55:31;100942.00;;;0.20
75822;BMP180;64454;51.984;9.838;2024-01-07T09:57:58;100936.00;;;0.50
75822;BMP180;64454;51.984;9.838;2024-01-07T10:00:27;100938.00;;;0.10
75822;BMP180;64454;51.984;9.838;2024-01-07T10:02:55;100943.00;;;0.20
75822;BMP180;64454;51.984;9.838;2024-01-07T10:05:21;100934.00;;;0.10
75822;BMP180;64454;51.984;9.838;2024-01-07T10:07:47;100938.00;;;0.70
75822;BMP180;64454;51.984;9.838;2024-01-07T10:10:14;100943.00;;;0.40
75822;BMP180;64454;51.984;9.838;2024-01-07T10:12:41;100936.00;;;0.40
75822;BMP180;64454;51.984;9.838;2024-01-07T10:15:08;100947.00;;;0.40
75822;BMP180;64454;51.984;9.838;2024-01-07T10:17:34;100947.00;;;0.30
75822;BMP180;64454;51.984;9.838;2024-01-07T10:20:00;100949.00;;;0.60
75822;BMP180;64454;51.984;9.838;2024-01-07T10:22:28;100944.00;;;0.40
75822;BMP180;64454;51.984;9.838;2024-01-07T10:24:55;100941.00;;;0.60
75822;BMP180;64454;51.984;9.838;2024-01-07T10:27:22;100948.00;;;0.60
75822;BMP180;64454;51.984;9.838;2024-01-07T10:29:50;100945.00;;;0.80
75822;BMP180;64454;51.984;9.838;2024-01-07T10:32:19;100948.00;;;0.90
75822;BMP180;64454;51.984;9.838;2024-01-07T10:34:46;100940.00;;;0.80
75822;BMP180;64454;51.984;9.838;2024-01-07T10:37:13;100947.00;;;0.40
75822;BMP180;64454;51.984;9.838;2024-01-07T10:39:40;100949.00;;;0.50
75822;BMP180;64454;51.984;9.838;2024-01-07T10:42:07;100958.00;;;0.70
75822;BMP180;64454;51.984;9.838;2024-01-07T10:44:34;100949.00;;;1.10
75822;BMP180;64454;51.984;9.838;2024-01-07T10:47:06;100959.00;;;0.70
75822;BMP180;64454;51.984;9.838;2024-01-07T10:49:35;100965.00;;;0.60
75822;BMP180;64454;51.984;9.838;2024-01-07T10:52:05;100948.00;;;0.40
75822;BMP180;64454;51.984;9.838;2024-01-07T10:54:33;100960.00;;;1.00
75822;BMP180;64454;51.984;9.838;2024-01-07T10:57:09;100959.00;;;0.70
75822;BMP180;64454;51.984;9.838;2024-01-07T10:59:38;100956.00;;;0.90
75822;BMP180;64454;51.984;9.838;2024-01-07T11:02:08;100963.00;;;0.80
75822;BMP180;64454;51.984;9.838;2024-01-07T11:04:42;100970.00;;;0.90
75822;BMP180;64454;51.984;9.838;2024-01-07T11:07:19;100964.00;;;0.60
75822;BMP180;64454;51.984;9.838;2024-01-07T11:10:00;100972.00;;;0.60
75822;BMP180;64454;51.984;9.838;2024-01-07T11:12:28;100964.00;;;0.60
75822;BMP180;64454;51.984;9.838;2024-01-07T11:14:54;100962.00;;;0.80
75822;BMP180;64454;51.984;9.838;2024-01-07T11:17:41;100965.00;;;0.80
75822;BMP180;64454;51.984;9.838;2024-01-07T11:20:18;100954.00;;;0.60
75822;BMP180;64454;51.984;9.838;2024-01-07T11:22:45;100963.00;;;0.90
75822;BMP180;64454;51.984;9.838;2024-01-07T11:25:30;100966.00;;;0.60
75822;BMP180;64454;51.984;9.838;2024-01-07T11:27:58;100959.00;;;0.80
75822;BMP180;64454;51.984;9.838;2024-01-07T11:30:24;100954.00;;;0.90
75822;BMP180;64454;51.984;9.838;2024-01-07T11:32:57;100953.00;;;1.20
75822;BMP180;64454;51.984;9.838;2024-01-07T11:35:54;100950.00;;;0.80
75822;BMP180;64454;51.984;9.838;2024-01-07T11:38:22;100950.00;;;0.50
75822;BMP180;64454;51.984;9.838;2024-01-07T11:40:49;100950.00;;;1.00
75822;BMP180;64454;51.984;9.838;2024-01-07T11:43:17;100940.00;;;0.90
75822;BMP180;64454;51.984;9.838;2024-01-07T11:45:43;100946.00;;;0.90
75822;BMP180;64454;51.984;9.838;2024-01-07T11:48:09;100949.00;;;1.40
75822;BMP180;64454;51.984;9.838;2024-01-07T11:50:35;100950.00;;;1.20
75822;BMP180;64454;51.984;9.838;2024-01-07T11:53:02;100950.00;;;1.20
75822;BMP180;64454;51.984;9.838;2024-01-07T11:55:29;100947.00;;;1.30
75822;BMP180;64454;51.984;9.838;2024-01-07T11:58:00;100956.00;;;1.50
75822;BMP180;64454;51.984;9.838;2024-01-07T12:00:27;100955.00;;;1.30
75822;BMP180;64454;51.984;9.838;2024-01-07T12:02:53;100953.00;;;1.10
75822;BMP180;64454;51.984;9.838;2024-01-07T12:05:19;100957.00;;;1.30
75822;BMP180;64454;51.984;9.838;2024-01-07T12:07:45;100957.00;;;1.00
75822;BMP180;64454;51.984;9.838;2024-01-07T12:10:12;100949.00;;;1.10
75822;BMP180;64454;51.984;9.838;2024-01-07T12:12:39;100945.00;;;1.00
75822;BMP180;64454;51.984;9.838;2024-01-07T12:15:07;100949.00;;;1.20
75822;BMP180;64454;51.984;9.838;2024-01-07T12:17:34;100950.00;;;1.50
75822;BMP180;64454;51.984;9.838;2024-01-07T12:20:00;100950.00;;;1.10
75822;BMP180;64454;51.984;9.838;2024-01-07T12:22:30;100961.00;;;0.60
75822;BMP180;64454;51.984;9.838;2024-01-07T12:25:03;100965.00;;;1.20
75822;BMP180;64454;51.984;9.838;2024-01-07T12:27:29;100957.00;;;1.00
75822;BMP180;64454;51.984;9.838;2024-01-07T12:29:56;100964.00;;;1.00
75822;BMP180;64454;51.984;9.838;2024-01-07T12:32:22;100961.00;;;1.40
75822;BMP180;64454;51.984;9.838;2024-01-07T12:34:49;100964.00;;;1.40
75822;BMP180;64454;51.984;9.838;2024-01-07T12:37:15;100960.00;;;1.20
75822;BMP180;64454;51.984;9.838;2024-01-07T12:39:42;100963.00;;;1.30
75822;BMP180;64454;51.984;9.838;2024-01-07T12:42:08;100958.00;;;0.80
75822;BMP180;64454;51.984;9.838;2024-01-07T12:44:36;100969.00;;;0.90
75822;BMP180;64454;51.984;9.838;2024-01-07T12:47:02;100965.00;;;1.30
75822;BMP180;64454;51.984;9.838;2024-01-07T12:49:29;100962.00;;;1.50
75822;BMP180;64454;51.984;9.838;2024-01-07T12:51:56;100972.00;;;1.00
75822;BMP180;64454;51.984;9.838;2024-01-07T12:54:22;100971.00;;;1.10
75822;BMP180;64454;51.984;9.838;2024-01-07T12:56:50;100976.00;;;1.10
75822;BMP180;64454;51.984;9.838;2024-01-07T12:59:17;100974.00;;;1.50
75822;BMP180;64454;51.984;9.838;2024-01-07T13:01:43;100982.00;;;1.00
75822;BMP180;64454;51.984;9.838;2024-01-07T13:04:10;100978.00;;;1.00
75822;BMP180;64454;51.984;9.838;2024-01-07T13:06:36;100979.00;;;1.40
75822;BMP180;64454;51.984;9.838;2024-01-07T13:09:03;100984.00;;;1.10
75822;BMP180;64454;51.984;9.838;2024-01-07T13:11:29;100985.00;;;1.40
75822;BMP180;64454;51.984;9.838;2024-01-07T13:13:56;100989.00;;;1.60
75822;BMP180;64454;51.984;9.838;2024-01-07T13:16:25;100987.00;;;1.40
75822;BMP180;64454;51.984;9.838;2024-01-07T13:18:51;100985.00;;;1.40
75822;BMP180;64454;51.984;9.838;2024-01-07T13:21:18;100990.00;;;1.70
75822;BMP180;64454;51.984;9.838;2024-01-07T13:23:44;100992.00;;;1.30
75822;BMP180;64454;51.984;9.838;2024-01-07T13:26:11;101000.00;;;0.80
75822;BMP180;64454;51.984;9.838;2024-01-07T13:28:37;100995.00;;;1.30
75822;BMP180;64454;51.984;9.838;2024-01-07T13:31:03;100998.00;;;1.20
75822;BMP180;64454;51.984;9.838;2024-01-07T13:33:30;100995.00;;;1.50
75822;BMP180;64454;51.984;9.838;2024-01-07T13:35:56;100997.00;;;1.20
75822;BMP180;64454;51.984;9.838;2024-01-07T13:38:22;101000.00;;;1.00
75822;BMP180;64454;51.984;9.838;2024-01-07T13:40:48;101001.00;;;1.00
75822;BMP180;64454;51.984;9.838;2024-01-07T13:43:15;100998.00;;;1.20
75822;BMP180;64454;51.984;9.838;2024-01-07T13:45:41;100999.00;;;1.40
75822;BMP180;64454;51.984;9.838;2024-01-07T13:48:07;101000.00;;;1.10
75822;BMP180;64454;51.984;9.838;2024-01-07T13:50:33;101010.00;;;1.10
75822;BMP180;64454;51.984;9.838;2024-01-07T13:52:59;101004.00;;;1.40
75822;BMP180;64454;51.984;9.838;2024-01-07T13:55:25;101015.00;;;1.30
75822;BMP180;64454;51.984;9.838;2024-01-07T13:57:52;101010.00;;;1.10
75822;BMP180;64454;51.984;9.838;2024-01-07T14:00:19;101007.00;;;1.20
75822;BMP180;64454;51.984;9.838;2024-01-07T14:02:46;101015.00;;;1.10
75822;BMP180;64454;51.984;9.838;2024-01-07T14:05:12;101018.00;;;1.00